Time;durP1;ratioP1;P1;durP2;ratioP2;P2;SDS_P1;SDS_P2;PMS_P1;PMS_P2;Temp;Humidity;BMP_temperature;BMP_pressure;BME280_temperature;BME280_humidity;BME280_pressure;Samples;Min_cycle;Max_cycle;Signal;HPM_P1;HPM_P2
2023/08/17 00:00:40;;;;;;;3.88;1.67;;;;;;;20.93;65.39;101503.16;2049357;28;20125;-73
2023/08/17 00:01:45;;;;;;;3.33;1.50;;;;;;;20.89;65.75;101504.91;2041358;28;20048;-72
2023/08/17 00:02:47;;;;;;;5.25;1.63;;;;;;;20.89;65.75;101502.19;2041990;28;20048;-72
2023/08/17 00:03:55;;;;;;;3.13;1.42;;;;;;;20.89;65.84;101509.59;2049655;28;20083;-73
2023/08/17 00:04:56;;;;;;;6.22;1.73;;;;;;;20.85;65.53;101500.44;2041408;28;20024;-72
2023/08/17 00:05:57;;;;;;;7.57;1.67;;;;;;;20.87;65.84;101512.66;2049570;28;20150;-72
2023/08/17 00:07:03;;;;;;;3.83;1.58;;;;;;;20.87;65.88;101507.19;2056971;28;20070;-73
2023/08/17 00:08:06;;;;;;;5.70;2.05;;;;;;;20.86;65.92;101511.03;2049698;28;20032;-73
2023/08/17 00:09:07;;;;;;;4.13;1.60;;;;;;;20.86;66.02;101513.75;2041314;28;20028;-73
2023/08/17 00:10:12;;;;;;;6.38;1.52;;;;;;;20.83;66.15;101509.75;2049035;28;20162;-73
2023/08/17 00:11:15;;;;;;;2.55;1.52;;;;;;;20.80;66.11;101512.34;2049518;28;20791;-71
2023/08/17 00:12:20;;;;;;;5.07;1.52;;;;;;;20.80;66.34;101513.13;2049233;28;20043;-69
2023/08/17 00:13:27;;;;;;;5.25;1.50;;;;;;;20.73;66.54;101510.09;2050593;28;20877;-71
2023/08/17 00:14:29;;;;;;;4.20;1.50;;;;;;;20.71;66.70;101511.53;2049202;28;20854;-71
2023/08/17 00:15:33;;;;;;;6.63;1.48;;;;;;;20.70;66.57;101508.00;2056938;28;20031;-71
2023/08/17 00:16:38;;;;;;;1.98;1.27;;;;;;;20.71;66.66;101506.06;2057212;28;20110;-71
2023/08/17 00:17:47;;;;;;;3.78;1.58;;;;;;;20.71;66.82;101506.06;2057318;28;20953;-72
2023/08/17 00:18:54;;;;;;;3.83;1.50;;;;;;;20.70;66.71;101499.00;2057063;28;20055;-75
2023/08/17 00:19:55;;;;;;;7.68;1.50;;;;;;;20.71;66.69;101498.69;2041858;28;20039;-72
2023/08/17 00:20:57;;;;;;;3.67;1.40;;;;;;;20.71;66.71;101500.59;2056402;28;20862;-73
2023/08/17 00:22:00;;;;;;;2.83;1.33;;;;;;;20.71;66.84;101501.44;2057218;28;20098;-71
2023/08/17 00:23:03;;;;;;;4.15;1.15;;;;;;;20.70;67.08;101496.28;2056896;28;20043;-72
2023/08/17 00:24:08;;;;;;;4.75;1.60;;;;;;;20.64;66.99;101508.50;2055091;28;20161;-72
2023/08/17 00:25:09;;;;;;;5.32;1.50;;;;;;;20.64;67.24;101508.50;2055034;28;20901;-72
2023/08/17 00:26:14;;;;;;;4.15;1.55;;;;;;;20.60;67.26;101495.50;2054345;28;20043;-72
2023/08/17 00:27:16;;;;;;;4.70;1.60;;;;;;;20.57;67.52;101501.59;2056272;28;20023;-72
2023/08/17 00:28:18;;;;;;;3.65;1.35;;;;;;;20.55;67.78;101498.41;2064864;28;20074;-72
2023/08/17 00:29:22;;;;;;;3.03;1.52;;;;;;;20.55;67.63;101497.56;2064970;28;20035;-72
2023/08/17 00:30:24;;;;;;;4.97;1.42;;;;;;;20.55;67.69;101498.41;2064950;28;20023;-72
2023/08/17 00:31:28;;;;;;;3.03;1.27;;;;;;;20.55;67.70;101505.78;2056642;28;20858;-72
2023/08/17 00:32:30;;;;;;;3.03;1.33;;;;;;;20.57;67.81;101500.81;2041398;28;20048;-72
2023/08/17 00:33:34;;;;;;;4.22;1.40;;;;;;;20.55;67.79;101495.66;2049279;28;20024;-72
2023/08/17 00:34:36;;;;;;;2.95;1.52;;;;;;;20.57;67.90;101501.59;2057204;28;20019;-72
2023/08/17 00:35:43;;;;;;;7.85;1.65;;;;;;;20.58;67.88;101497.72;2057224;28;20034;-72
2023/08/17 00:36:46;;;;;;;3.13;1.40;;;;;;;20.59;67.82;101504.03;2057622;28;20086;-72
2023/08/17 00:37:47;;;;;;;3.13;1.42;;;;;;;20.59;67.76;101506.75;2056908;28;20098;-71
2023/08/17 00:38:49;;;;;;;3.60;1.35;;;;;;;20.59;67.73;101506.75;2064762;28;20042;-71
2023/08/17 00:39:51;;;;;;;5.30;1.45;;;;;;;20.61;67.73;101507.22;2056870;28;20195;-70
2023/08/17 00:40:54;;;;;;;3.55;1.63;;;;;;;20.62;67.54;101508.00;2049267;28;20036;-71
2023/08/17 00:41:59;;;;;;;3.40;1.48;;;;;;;20.63;67.79;101504.19;2048779;28;20971;-70
2023/08/17 00:43:00;;;;;;;3.97;1.40;;;;;;;20.62;67.67;101503.38;2041375;28;20040;-70
2023/08/17 00:44:02;;;;;;;5.80;1.70;;;;;;;20.63;67.94;101504.19;2057066;28;20106;-70
2023/08/17 00:45:10;;;;;;;1.48;1.30;;;;;;;20.63;67.89;101502.25;2057468;28;20019;-70
2023/08/17 00:46:12;;;;;;;2.28;1.10;;;;;;;20.64;67.91;101501.09;2041432;28;20991;-70
2023/08/17 00:47:14;;;;;;;2.10;1.20;;;;;;;20.64;67.74;101494.84;2040959;28;20040;-70
2023/08/17 00:48:16;;;;;;;3.45;1.40;;;;;;;20.64;67.75;101500.31;2056862;28;20039;-70
2023/08/17 00:49:20;;;;;;;3.28;1.50;;;;;;;20.65;67.77;101501.91;2056621;28;20039;-70
2023/08/17 00:50:24;;;;;;;4.10;1.20;;;;;;;20.64;67.73;101503.03;2057067;28;20153;-70
2023/08/17 00:51:27;;;;;;;3.92;1.45;;;;;;;20.62;67.87;101497.09;2048712;28;20036;-72
2023/08/17 00:52:30;;;;;;;5.80;1.52;;;;;;;20.60;67.92;101498.22;2049546;28;20028;-71
2023/08/17 00:53:32;;;;;;;5.22;1.70;;;;;;;20.59;68.11;101493.09;2057913;28;20034;-72
2023/08/17 00:54:35;;;;;;;4.22;1.30;;;;;;;20.62;67.81;101491.63;2050448;28;20122;-72
2023/08/17 00:55:37;;;;;;;4.40;1.50;;;;;;;20.62;67.85;101505.28;2042766;28;20142;-72
2023/08/17 00:56:39;;;;;;;5.47;1.75;;;;;;;20.62;68.06;101502.53;2034527;28;20132;-72
2023/08/17 00:57:41;;;;;;;3.80;1.38;;;;;;;20.62;67.90;101502.53;2042415;28;20051;-72
2023/08/17 00:58:43;;;;;;;5.18;1.42;;;;;;;20.60;68.06;101500.94;2050346;28;20810;-73
2023/08/17 00:59:48;;;;;;;3.80;1.40;;;;;;;20.60;68.01;101500.94;2050155;28;20846;-72
2023/08/17 01:00:54;;;;;;;4.95;1.73;;;;;;;20.60;68.20;101498.22;2035276;28;20086;-72
2023/08/17 01:01:57;;;;;;;7.10;1.25;;;;;;;20.61;67.95;101501.75;2035894;28;20083;-72
2023/08/17 01:03:02;;;;;;;4.43;1.40;;;;;;;20.60;68.09;101498.22;2027141;29;20098;-71
2023/08/17 01:04:04;;;;;;;4.57;1.65;;;;;;;20.62;67.87;101495.19;2027353;28;20041;-72
2023/08/17 01:05:08;;;;;;;3.15;1.25;;;;;;;20.62;67.82;101488.88;2042806;28;20020;-72
2023/08/17 01:06:10;;;;;;;3.15;1.52;;;;;;;20.60;67.78;101495.50;2042275;29;20068;-72
2023/08/17 01:07:13;;;;;;;6.20;1.80;;;;;;;20.61;67.86;101496.28;2042587;28;20040;-72
2023/08/17 01:08:16;;;;;;;5.18;1.60;;;;;;;20.60;67.82;101500.16;2057868;28;20095;-72
2023/08/17 01:09:19;;;;;;;1.92;1.10;;;;;;;20.59;68.05;101499.34;2058293;28;20081;-72
2023/08/17 01:10:23;;;;;;;5.88;1.30;;;;;;;20.59;67.93;101507.56;2042908;28;20151;-72
2023/08/17 01:11:34;;;;;;;4.22;1.40;;;;;;;20.57;67.79;101496.13;2050951;28;21191;-72
2023/08/17 01:13:07;;;;;;;3.50;1.52;;;;;;;20.55;68.00;101495.66;2058330;28;20046;-72
2023/08/17 01:14:25;;;;;;;3.55;1.40;;;;;;;20.54;67.97;101507.72;2058496;28;20023;-69
2023/08/17 01:15:39;;;;;;;5.63;1.50;;;;;;;20.54;68.02;101502.25;2050098;28;20142;-72
2023/08/17 01:17:05;;;;;;;2.10;1.15;;;;;;;20.52;68.09;101501.78;2053728;28;20062;-72
2023/08/17 01:18:21;;;;;;;4.00;1.25;;;;;;;20.53;67.96;101497.13;2050025;28;20044;-71
2023/08/17 01:19:30;;;;;;;3.10;1.23;;;;;;;20.50;68.15;101498.53;2046699;28;20292;-71
2023/08/17 01:20:32;;;;;;;4.35;1.40;;;;;;;20.50;68.08;101497.72;2059289;28;20067;-72
2023/08/17 01:21:40;;;;;;;4.10;1.77;;;;;;;20.49;68.23;101499.66;2065357;28;20086;-72
2023/08/17 01:22:44;;;;;;;5.88;1.20;;;;;;;20.48;68.37;101502.69;2050088;28;20063;-72
2023/08/17 01:23:49;;;;;;;3.10;1.35;;;;;;;20.46;68.19;101505.78;2050291;28;20198;-72
2023/08/17 01:24:57;;;;;;;4.28;1.38;;;;;;;20.47;68.46;101496.44;2066004;28;20929;-72
2023/08/17 01:25:59;;;;;;;5.03;1.88;;;;;;;20.46;68.33;101497.56;2058121;28;20031;-72
2023/08/17 01:27:01;;;;;;;5.25;1.60;;;;;;;20.46;68.14;101500.31;2058295;28;20069;-72
2023/08/17 01:28:03;;;;;;;4.13;1.30;;;;;;;20.45;68.19;101497.88;2049494;28;20040;-72
2023/08/17 01:29:04;;;;;;;5.45;1.50;;;;;;;20.44;68.11;101499.81;2034160;28;20037;-72
2023/08/17 01:30:07;;;;;;;5.78;2.55;;;;;;;20.42;68.35;101493.88;2034344;28;20025;-72
2023/08/17 01:31:38;;;;;;;4.07;1.48;;;;;;;20.41;68.28;101489.53;2034452;29;20071;-72
2023/08/17 01:32:58;;;;;;;2.33;1.23;;;;;;;20.42;68.25;101495.78;2038093;28;20159;-72
2023/08/17 01:34:08;;;;;;;5.45;1.40;;;;;;;20.41;68.49;101486.81;2050108;28;20043;-73
2023/08/17 01:35:36;;;;;;;4.30;1.40;;;;;;;20.40;68.53;101482.47;2051600;28;20986;-72
2023/08/17 01:36:42;;;;;;;2.70;1.38;;;;;;;20.38;68.46;101481.97;2049202;28;20063;-73
2023/08/17 01:37:51;;;;;;;5.18;1.40;;;;;;;20.37;68.29;101480.38;2050989;28;20030;-73
2023/08/17 01:38:55;;;;;;;4.07;1.45;;;;;;;20.38;68.39;101484.72;2049878;28;20032;-73
2023/08/17 01:39:59;;;;;;;3.75;1.77;;;;;;;20.35;68.44;101485.34;2050003;28;20111;-73
2023/08/17 01:41:04;;;;;;;2.70;1.35;;;;;;;20.36;68.51;101484.22;2056390;28;20862;-73
2023/08/17 01:42:06;;;;;;;4.15;1.50;;;;;;;20.36;68.56;101481.50;2057989;28;20030;-72
2023/08/17 01:43:11;;;;;;;6.30;1.70;;;;;;;20.33;68.73;101474.78;2057894;28;20079;-73
2023/08/17 01:44:13;;;;;;;4.22;1.50;;;;;;;20.32;68.74;101483.28;2050034;28;20035;-73
2023/08/17 01:45:16;;;;;;;6.40;1.65;;;;;;;20.29;68.96;101475.72;2034427;28;20093;-73
2023/08/17 01:46:19;;;;;;;3.00;1.30;;;;;;;20.27;68.89;101470.59;2042814;28;20043;-73
2023/08/17 01:47:40;;;;;;;2.95;1.38;;;;;;;20.24;69.27;101464.94;2050110;28;20151;-72
2023/08/17 01:48:43;;;;;;;2.22;1.30;;;;;;;20.16;69.31;101474.75;2036351;29;20190;-72
2023/08/17 01:49:47;;;;;;;3.38;1.40;;;;;;;20.14;69.51;101469.63;2034572;28;20044;-72
2023/08/17 01:50:50;;;;;;;5.15;1.40;;;;;;;20.10;69.24;101465.91;2050071;28;20027;-73
2023/08/17 01:51:58;;;;;;;5.35;1.10;;;;;;;20.13;69.38;101470.72;2050248;28;20090;-72
2023/08/17 01:53:02;;;;;;;4.70;1.60;;;;;;;20.08;69.76;101465.44;2058855;28;20028;-72
2023/08/17 01:54:07;;;;;;;4.43;1.90;;;;;;;20.07;69.49;101465.75;2057434;28;20019;-72
2023/08/17 01:55:11;;;;;;;3.53;1.60;;;;;;;20.06;69.80;101466.88;2050004;28;20886;-72
2023/08/17 01:56:12;;;;;;;4.78;1.50;;;;;;;20.08;69.78;101472.81;2049769;28;20957;-73
2023/08/17 01:57:16;;;;;;;1.80;1.25;;;;;;;20.07;69.85;101472.00;2050231;28;20039;-72
2023/08/17 01:58:20;;;;;;;4.75;1.50;;;;;;;20.08;69.92;101467.34;2050207;28;20036;-72
2023/08/17 01:59:27;;;;;;;;;;;;;;;20.07;69.92;101469.28;2051288;28;20150;-72
2023/08/17 02:00:29;;;;;;;7.47;1.33;;;;;;;20.08;69.96;101468.19;2042452;28;20758;-72
2023/08/17 02:01:31;;;;;;;3.20;1.42;;;;;;;20.10;69.98;101465.13;2049867;28;20048;-73
2023/08/17 02:02:32;;;;;;;3.10;1.38;;;;;;;20.10;69.79;101470.56;2049761;28;20084;-73
2023/08/17 02:03:37;;;;;;;4.45;1.50;;;;;;;20.09;69.72;101467.06;2050323;28;20027;-73
2023/08/17 02:04:39;;;;;;;3.78;1.63;;;;;;;20.10;69.86;101465.91;2065620;28;20153;-73
2023/08/17 02:05:45;;;;;;;3.45;1.15;;;;;;;20.10;69.72;101471.38;2049802;28;20094;-72
2023/08/17 02:06:51;;;;;;;5.35;1.40;;;;;;;20.10;69.77;101468.66;2050810;28;20892;-73
2023/08/17 02:07:54;;;;;;;5.07;1.40;;;;;;;20.09;69.94;101475.25;2057936;28;20139;-72
2023/08/17 02:08:56;;;;;;;4.80;1.50;;;;;;;20.07;69.94;101472.00;2057925;28;21265;-72
2023/08/17 02:09:58;;;;;;;3.53;1.33;;;;;;;20.07;69.94;101476.69;2057673;28;20027;-72
2023/08/17 02:11:03;;;;;;;5.18;1.35;;;;;;;20.07;69.99;101473.94;2065892;28;20034;-72
2023/08/17 02:12:08;;;;;;;3.78;1.30;;;;;;;20.08;70.04;101481.00;2065535;28;20050;-73
2023/08/17 02:13:10;;;;;;;2.97;1.30;;;;;;;20.08;70.02;101490.03;2057563;28;20020;-73
2023/08/17 02:14:11;;;;;;;4.75;1.30;;;;;;;20.06;70.03;101492.25;2049943;28;20074;-73
2023/08/17 02:15:13;;;;;;;5.20;1.58;;;;;;;20.05;70.07;101487.94;2041886;28;20151;-73
2023/08/17 02:16:18;;;;;;;2.00;1.20;;;;;;;20.00;69.96;101481.81;2057710;28;20031;-73
2023/08/17 02:17:23;;;;;;;4.60;1.30;;;;;;;20.00;70.10;101490.81;2057958;28;20038;-73
2023/08/17 02:18:30;;;;;;;2.83;1.20;;;;;;;20.02;70.17;101487.75;2065521;28;20047;-72
2023/08/17 02:19:32;;;;;;;3.25;1.30;;;;;;;19.96;70.40;101498.03;2049661;28;20040;-73
2023/08/17 02:20:37;;;;;;;3.30;1.20;;;;;;;19.95;70.44;101501.88;2049768;28;20035;-72
2023/08/17 02:21:42;;;;;;;4.43;1.23;;;;;;;19.95;70.19;101501.06;2057487;28;20146;-73
2023/08/17 02:22:44;;;;;;;4.78;1.27;;;;;;;19.96;70.49;101508.94;2057484;28;20941;-72
2023/08/17 02:23:47;;;;;;;4.75;1.38;;;;;;;19.96;70.42;101513.63;2066076;28;20075;-72
2023/08/17 02:24:49;;;;;;;3.40;1.25;;;;;;;19.95;70.41;101518.25;2065493;28;20909;-73
2023/08/17 02:25:52;;;;;;;5.20;1.38;;;;;;;19.96;70.29;101517.13;2049053;28;20806;-73
2023/08/17 02:26:59;;;;;;;6.90;1.48;;;;;;;19.95;70.34;101498.34;2041946;28;21156;-72
2023/08/17 02:28:05;;;;;;;4.65;1.42;;;;;;;19.96;70.40;101505.44;2058929;28;20039;-72
2023/08/17 02:29:08;;;;;;;3.20;1.48;;;;;;;19.96;70.42;101502.69;2057346;28;20031;-73
2023/08/17 02:30:16;;;;;;;4.10;1.40;;;;;;;19.96;70.40;101497.25;2049587;28;20938;-72
2023/08/17 02:31:20;;;;;;;6.25;1.77;;;;;;;19.93;70.58;101501.41;2051919;28;20107;-73
2023/08/17 02:32:23;;;;;;;8.45;1.55;;;;;;;19.93;70.51;101501.41;2065746;28;20050;-72
2023/08/17 02:33:24;;;;;;;4.55;1.48;;;;;;;19.94;70.43;101500.28;2057725;28;20065;-73
2023/08/17 02:34:26;;;;;;;4.15;1.45;;;;;;;19.95;70.60;101501.88;2057711;28;20043;-72
2023/08/17 02:35:29;;;;;;;3.00;1.50;;;;;;;19.93;70.79;101493.22;2050127;28;20957;-72
2023/08/17 02:36:33;;;;;;;4.80;1.50;;;;;;;19.94;70.55;101500.28;2049797;28;20040;-72
2023/08/17 02:37:38;;;;;;;4.53;1.73;;;;;;;19.94;70.63;101503.00;2049527;28;20035;-73
2023/08/17 02:38:39;;;;;;;3.65;1.50;;;;;;;19.94;70.58;101503.00;2033995;29;20145;-73
2023/08/17 02:39:44;;;;;;;2.88;1.60;;;;;;;19.96;70.71;101502.69;2026120;28;20029;-73
2023/08/17 02:40:45;;;;;;;4.85;1.45;;;;;;;19.95;70.62;101501.88;2050823;28;20138;-72
2023/08/17 02:41:49;;;;;;;3.03;1.30;;;;;;;19.97;70.93;101504.28;2049160;28;20027;-72
2023/08/17 02:42:53;;;;;;;2.85;1.45;;;;;;;19.97;70.74;101510.56;2050246;28;20067;-72
2023/08/17 02:43:57;;;;;;;3.78;1.30;;;;;;;19.95;70.85;101501.88;2049401;28;20043;-72
2023/08/17 02:44:59;;;;;;;4.88;1.80;;;;;;;19.95;70.84;101512.78;2033864;28;20036;-72
2023/08/17 02:46:01;;;;;;;3.00;1.33;;;;;;;19.94;71.04;101505.72;2034044;28;21271;-72
2023/08/17 02:47:04;;;;;;;3.78;1.27;;;;;;;19.93;70.87;101504.13;2034119;28;20040;-72
2023/08/17 02:48:09;;;;;;;3.88;1.40;;;;;;;19.93;70.84;101506.84;2049940;28;20128;-72
2023/08/17 02:49:11;;;;;;;3.88;1.30;;;;;;;19.94;70.84;101516.66;2049704;28;20047;-72
2023/08/17 02:50:13;;;;;;;3.45;1.50;;;;;;;19.92;70.72;101507.97;2049941;28;20933;-72
2023/08/17 02:51:15;;;;;;;4.07;1.40;;;;;;;19.90;70.91;101516.47;2057575;28;20027;-73
2023/08/17 02:52:20;;;;;;;6.75;1.23;;;;;;;19.90;71.13;101510.22;2042135;28;21023;-73
2023/08/17 02:53:22;;;;;;;2.72;1.33;;;;;;;19.90;71.01;101515.69;2042583;28;20039;-73
2023/08/17 02:54:24;;;;;;;3.22;1.60;;;;;;;19.91;70.99;101517.28;2049436;28;20071;-73
2023/08/17 02:55:25;;;;;;;3.17;1.60;;;;;;;19.91;71.01;101509.88;2049634;28;20890;-73
2023/08/17 02:56:31;;;;;;;2.90;1.40;;;;;;;19.91;70.95;101511.81;2049440;28;20034;-73
2023/08/17 02:57:36;;;;;;;3.40;1.20;;;;;;;19.91;71.01;101511.81;2050750;28;20035;-73
2023/08/17 02:58:42;;;;;;;6.40;1.50;;;;;;;19.89;70.90;101514.88;2058007;28;20035;-73
2023/08/17 02:59:44;;;;;;;5.63;1.65;;;;;;;19.91;70.85;101520.00;2057464;28;20031;-73
2023/08/17 03:00:46;;;;;;;3.03;1.40;;;;;;;19.90;70.87;101516.47;2057742;28;20141;-73
2023/08/17 03:01:51;;;;;;;5.57;1.50;;;;;;;19.90;70.75;101519.22;2057388;28;20027;-73
2023/08/17 03:02:53;;;;;;;7.20;1.60;;;;;;;19.91;70.91;101520.00;2049890;28;20036;-73
2023/08/17 03:03:55;;;;;;;4.20;1.60;;;;;;;19.90;71.03;101521.16;2065708;28;20061;-73
2023/08/17 03:04:57;;;;;;;4.28;1.50;;;;;;;19.90;70.84;101521.16;2065701;28;20019;-73
2023/08/17 03:06:01;;;;;;;4.40;1.40;;;;;;;19.90;70.90;101521.16;2065438;28;20026;-73
2023/08/17 03:07:05;;;;;;;5.47;1.50;;;;;;;19.92;70.73;101527.06;2049377;28;20147;-73
2023/08/17 03:08:07;;;;;;;4.03;1.60;;;;;;;19.90;70.78;101521.94;2050312;28;20032;-73
2023/08/17 03:09:09;;;;;;;3.85;1.50;;;;;;;19.91;70.72;101511.81;2057389;28;20070;-73
2023/08/17 03:10:13;;;;;;;5.63;1.52;;;;;;;19.92;70.67;101516.16;2041600;28;20075;-73
2023/08/17 03:11:15;;;;;;;4.47;1.77;;;;;;;19.93;70.55;101514.25;2049804;28;20969;-72
2023/08/17 03:12:19;;;;;;;4.15;1.52;;;;;;;19.91;70.75;101522.75;2057626;28;20027;-73
2023/08/17 03:13:21;;;;;;;6.15;1.95;;;;;;;19.93;70.67;101514.25;2057134;28;20062;-73
2023/08/17 03:14:23;;;;;;;4.25;1.52;;;;;;;19.92;70.61;101510.69;2049572;28;20050;-72
2023/08/17 03:15:24;;;;;;;4.80;1.52;;;;;;;19.92;70.72;101507.97;2057105;28;20924;-73
2023/08/17 03:16:33;;;;;;;4.10;1.50;;;;;;;19.93;70.83;101514.25;2064911;28;20871;-73
2023/08/17 03:17:37;;;;;;;4.65;1.50;;;;;;;19.91;70.70;101512.63;2056988;28;20869;-73
2023/08/17 03:18:39;;;;;;;2.42;1.40;;;;;;;19.86;70.83;101498.31;2057596;28;20181;-73
2023/08/17 03:19:43;;;;;;;5.68;1.45;;;;;;;19.90;70.96;101505.56;2065450;28;20043;-73
2023/08/17 03:20:48;;;;;;;3.13;1.40;;;;;;;19.91;70.92;101509.88;2049070;28;20081;-73
2023/08/17 03:21:51;;;;;;;3.88;1.30;;;;;;;19.91;70.72;101511.81;2049832;28;20044;-73
2023/08/17 03:22:59;;;;;;;4.88;1.42;;;;;;;19.90;70.76;101507.50;2050188;28;20020;-73
2023/08/17 03:24:02;;;;;;;5.05;1.42;;;;;;;19.91;70.85;101509.09;2033770;29;20032;-71
2023/08/17 03:25:09;;;;;;;4.93;1.38;;;;;;;19.91;70.78;101507.16;2026251;28;20037;-72
2023/08/17 03:26:14;;;;;;;3.28;1.35;;;;;;;19.91;70.96;101511.81;2043943;28;20119;-72
2023/08/17 03:27:18;;;;;;;4.13;1.55;;;;;;;19.90;71.01;101505.56;2040994;29;20086;-72
2023/08/17 03:28:25;;;;;;;3.88;1.45;;;;;;;19.90;70.94;101511.03;2041529;28;20071;-73
2023/08/17 03:29:27;;;;;;;2.80;1.33;;;;;;;19.91;71.09;101511.81;2026037;29;20045;-72
2023/08/17 03:30:29;;;;;;;2.92;1.27;;;;;;;19.92;70.94;101513.41;2034058;28;20131;-72
2023/08/17 03:31:30;;;;;;;3.35;1.60;;;;;;;19.93;70.99;101515.03;2054382;28;20040;-72
2023/08/17 03:32:32;;;;;;;4.28;1.60;;;;;;;19.94;71.07;101518.56;2057339;28;20028;-72
2023/08/17 03:33:36;;;;;;;3.72;1.70;;;;;;;19.91;70.95;101522.75;2057105;28;20023;-72
2023/08/17 03:34:38;;;;;;;2.33;1.30;;;;;;;19.93;70.96;101519.72;2049365;28;20040;-72
2023/08/17 03:35:41;;;;;;;3.53;1.55;;;;;;;19.90;71.13;101515.69;2057260;28;20040;-72
2023/08/17 03:36:43;;;;;;;4.25;1.58;;;;;;;19.91;70.93;101517.28;2049855;28;20051;-72
2023/08/17 03:37:47;;;;;;;3.78;1.30;;;;;;;19.90;70.78;101516.47;2049330;28;20051;-72
2023/08/17 03:38:49;;;;;;;3.63;1.40;;;;;;;19.86;71.14;101520.97;2057398;28;20035;-72
2023/08/17 03:39:51;;;;;;;3.13;1.30;;;;;;;19.91;70.90;101518.06;2041700;28;20031;-72
2023/08/17 03:40:53;;;;;;;3.20;1.50;;;;;;;19.92;70.81;101524.34;2033631;28;20037;-72
2023/08/17 03:41:58;;;;;;;6.90;1.70;;;;;;;19.92;70.91;101516.16;2042323;28;20039;-72
2023/08/17 03:43:00;;;;;;;4.07;1.60;;;;;;;19.92;70.79;101518.88;2049393;28;20035;-71
2023/08/17 03:44:05;;;;;;;5.72;1.38;;;;;;;19.92;70.81;101521.59;2057046;28;20031;-71
2023/08/17 03:45:09;;;;;;;4.15;1.60;;;;;;;19.93;70.92;101520.50;2057231;28;20747;-71
2023/08/17 03:46:11;;;;;;;3.35;1.40;;;;;;;19.93;70.87;101512.31;2057548;28;20134;-71
2023/08/17 03:47:12;;;;;;;3.83;1.50;;;;;;;19.93;70.97;101509.59;2065330;28;20039;-71
2023/08/17 03:48:14;;;;;;;4.30;1.27;;;;;;;19.94;70.81;101507.66;2057283;28;20030;-71
2023/08/17 03:49:17;;;;;;;3.63;1.50;;;;;;;19.94;70.79;101504.94;2049270;28;20039;-71
2023/08/17 03:50:19;;;;;;;4.65;1.67;;;;;;;19.95;71.04;101501.88;2049263;28;20839;-71
2023/08/17 03:51:20;;;;;;;1.75;1.30;;;;;;;19.95;71.02;101506.53;2049431;28;20150;-72
2023/08/17 03:52:22;;;;;;;4.53;1.60;;;;;;;19.95;71.04;101511.97;2057110;28;20858;-71
2023/08/17 03:53:24;;;;;;;2.85;1.30;;;;;;;19.94;71.19;101500.28;2057137;28;20066;-72
2023/08/17 03:54:29;;;;;;;4.10;1.42;;;;;;;19.95;71.00;101503.78;2049527;28;20862;-72
2023/08/17 03:55:36;;;;;;;4.38;1.60;;;;;;;19.94;71.24;101505.72;2050053;28;20043;-72
2023/08/17 03:56:38;;;;;;;5.25;1.50;;;;;;;19.94;71.21;101508.47;2049266;28;20092;-72
2023/08/17 03:57:40;;;;;;;6.10;1.20;;;;;;;19.94;71.27;101510.38;2041444;28;20167;-72
2023/08/17 03:58:44;;;;;;;1.90;1.38;;;;;;;19.96;71.26;101508.94;2057298;28;20854;-72
2023/08/17 03:59:46;;;;;;;4.38;1.48;;;;;;;19.95;71.42;101503.78;2056708;28;20086;-72
2023/08/17 04:00:51;;;;;;;3.45;1.42;;;;;;;19.94;71.31;101504.94;2049238;28;20039;-72
2023/08/17 04:01:59;;;;;;;3.80;1.40;;;;;;;19.96;71.36;101508.94;2049332;28;20024;-72
2023/08/17 04:03:04;;;;;;;6.78;1.75;;;;;;;19.96;71.37;101503.50;2041185;28;20079;-71
2023/08/17 04:04:06;;;;;;;5.50;1.63;;;;;;;19.96;71.68;101499.97;2057873;28;20149;-73
2023/08/17 04:05:11;;;;;;;5.55;1.60;;;;;;;19.97;71.57;101504.28;2049028;28;20848;-73
2023/08/17 04:06:14;;;;;;;3.60;1.50;;;;;;;19.97;71.50;101510.56;2057855;28;20129;-73
2023/08/17 04:07:22;;;;;;;4.63;1.30;;;;;;;19.99;71.59;101508.31;2056791;28;20023;-73
2023/08/17 04:08:24;;;;;;;2.90;1.55;;;;;;;20.00;71.53;101503.66;2057643;28;20892;-73
2023/08/17 04:09:28;;;;;;;6.63;1.83;;;;;;;19.97;71.53;101499.63;2048748;28;20036;-73
2023/08/17 04:10:30;;;;;;;3.03;1.60;;;;;;;20.00;71.58;101493.53;2034204;28;20064;-73
2023/08/17 04:11:38;;;;;;;4.20;1.50;;;;;;;20.02;71.66;101501.38;2040997;28;20241;-72
2023/08/17 04:12:43;;;;;;;5.78;1.58;;;;;;;20.02;71.79;101494.03;2051451;28;20032;-72
2023/08/17 04:13:49;;;;;;;2.63;1.33;;;;;;;20.02;71.64;101493.19;2057227;28;20043;-72
2023/08/17 04:14:51;;;;;;;5.15;1.50;;;;;;;20.01;71.89;101499.78;2041204;28;20803;-72
2023/08/17 04:15:54;;;;;;;4.93;1.70;;;;;;;20.01;72.02;101500.59;2041508;28;20083;-72
2023/08/17 04:16:58;;;;;;;2.85;1.42;;;;;;;20.01;72.11;101497.88;2041470;28;21286;-72
2023/08/17 04:18:02;;;;;;;3.72;1.38;;;;;;;20.02;72.20;101496.75;2041572;28;20139;-72
2023/08/17 04:19:05;;;;;;;2.67;1.55;;;;;;;20.01;72.38;101495.13;2057615;28;20077;-72
2023/08/17 04:20:13;;;;;;;8.18;2.25;;;;;;;19.95;72.74;101495.59;2056601;28;20158;-72
2023/08/17 04:21:17;;;;;;;2.75;1.25;;;;;;;19.94;72.73;101494.00;2049260;28;20066;-74
2023/08/17 04:22:18;;;;;;;7.65;2.00;;;;;;;19.90;73.05;101493.84;2057378;28;20031;-72
2023/08/17 04:23:20;;;;;;;3.78;1.25;;;;;;;19.86;73.02;101488.22;2064267;28;20907;-72
2023/08/17 04:24:22;;;;;;;3.47;1.52;;;;;;;19.84;73.40;101486.94;2051568;28;20035;-72
2023/08/17 04:25:24;;;;;;;6.82;1.40;;;;;;;19.85;73.36;101492.06;2029311;29;20041;-72
2023/08/17 04:26:27;;;;;;;4.32;1.42;;;;;;;19.87;73.60;101492.56;2033741;28;20029;-72
2023/08/17 04:27:32;;;;;;;6.53;1.70;;;;;;;19.87;73.74;101489.81;2041812;28;20032;-72
2023/08/17 04:28:34;;;;;;;6.53;1.45;;;;;;;19.91;73.58;101498.97;2043681;28;20091;-72
2023/08/17 04:29:38;;;;;;;5.20;1.48;;;;;;;19.92;73.68;101491.59;2044468;28;20044;-72
2023/08/17 04:30:40;;;;;;;1.88;1.17;;;;;;;19.96;73.81;101492.56;2043421;28;20836;-74
2023/08/17 04:31:45;;;;;;;3.90;1.35;;;;;;;19.97;73.71;101493.38;2050596;28;20035;-72
2023/08/17 04:32:52;;;;;;;4.68;1.50;;;;;;;20.00;73.82;101490.81;2059381;28;20838;-72
2023/08/17 04:33:54;;;;;;;4.40;1.50;;;;;;;20.04;73.70;101497.22;2050412;28;21129;-71
2023/08/17 04:34:56;;;;;;;4.50;1.42;;;;;;;20.03;73.83;101492.91;2043086;28;20076;-71
2023/08/17 04:35:58;;;;;;;4.15;1.27;;;;;;;20.06;73.90;101500.44;2058558;28;20030;-72
2023/08/17 04:37:02;;;;;;;5.75;1.63;;;;;;;20.02;74.12;101502.22;2050461;28;20135;-72
2023/08/17 04:38:05;;;;;;;4.45;1.17;;;;;;;19.97;74.19;101505.09;2058475;28;20023;-72
2023/08/17 04:39:09;;;;;;;6.13;1.60;;;;;;;19.99;74.35;101502.84;2058393;28;20110;-72
2023/08/17 04:40:11;;;;;;;6.35;1.80;;;;;;;20.01;74.37;101499.78;2050067;28;20036;-72
2023/08/17 04:41:15;;;;;;;5.38;1.27;;;;;;;20.04;74.32;101502.69;2042836;28;20104;-72
2023/08/17 04:42:17;;;;;;;6.95;1.20;;;;;;;20.06;74.36;101497.72;2042735;28;20032;-71
2023/08/17 04:43:19;;;;;;;2.42;1.23;;;;;;;20.09;74.19;101508.00;2058406;28;20039;-71
2023/08/17 04:44:24;;;;;;;6.25;1.40;;;;;;;20.12;74.44;101507.38;2057878;28;20027;-71
2023/08/17 04:45:29;;;;;;;6.82;1.35;;;;;;;20.17;74.37;101511.06;2056074;28;20098;-72
2023/08/17 04:46:31;;;;;;;5.57;1.33;;;;;;;20.20;74.17;101507.69;2066777;28;20149;-71
2023/08/17 04:47:38;;;;;;;5.95;1.63;;;;;;;20.22;74.34;101514.44;2066282;28;20043;-71
2023/08/17 04:48:41;;;;;;;6.28;2.10;;;;;;;20.23;74.45;101512.50;2050777;28;20036;-72
2023/08/17 04:49:42;;;;;;;5.95;1.73;;;;;;;20.22;74.29;101513.63;2042611;28;20235;-72
2023/08/17 04:50:48;;;;;;;4.90;1.50;;;;;;;20.19;74.33;101514.28;2050446;28;20794;-72
2023/08/17 04:51:51;;;;;;;4.80;1.50;;;;;;;20.23;74.33;101518.75;2066577;28;20129;-71
2023/08/17 04:52:53;;;;;;;2.85;1.30;;;;;;;20.22;74.18;101516.38;2065717;28;20109;-71
2023/08/17 04:53:57;;;;;;;3.72;1.65;;;;;;;20.25;74.38;101513.00;2056917;28;20043;-71
2023/08/17 04:55:03;;;;;;;4.25;1.70;;;;;;;20.16;74.48;101523.91;2057590;28;20047;-73
2023/08/17 04:56:07;;;;;;;5.78;1.70;;;;;;;20.15;74.66;101525.03;2050156;28;20186;-72
2023/08/17 04:57:12;;;;;;;3.45;1.60;;;;;;;20.15;74.76;101527.75;2049586;28;20094;-72
2023/08/17 04:58:16;;;;;;;5.82;1.75;;;;;;;20.18;74.81;101527.13;2049235;28;20082;-73